Time;durP1;ratioP1;P1;durP2;ratioP2;P2;SDS_P1;SDS_P2;PMS_P1;PMS_P2;Temp;Humidity;BMP_temperature;BMP_pressure;BME280_temperature;BME280_humidity;BME280_pressure;Samples;Min_cycle;Max_cycle;Signal;HPM_P1;HPM_P2
2023/12/28 00:00:28;;;;;;;10.17;4.93;;;5.40;99.90;;;;;;4958431;28;20034;-76
2023/12/28 00:02:53;;;;;;;10.77;5.27;;;5.50;99.90;;;;;;4957835;28;20061;-77
2023/12/28 00:05:19;;;;;;;9.93;5.20;;;5.40;99.90;;;;;;4958042;28;20027;-76
2023/12/28 00:07:44;;;;;;;11.20;5.53;;;5.40;99.90;;;;;;4975163;28;20034;-77
2023/12/28 00:10:10;;;;;;;11.07;5.50;;;5.40;99.90;;;;;;4958234;28;20118;-76
2023/12/28 00:12:36;;;;;;;14.20;5.30;;;5.40;99.90;;;;;;4975627;28;20034;-77
2023/12/28 00:15:02;;;;;;;10.77;5.57;;;5.40;99.90;;;;;;4957840;28;20100;-77
2023/12/28 00:17:27;;;;;;;12.03;5.60;;;5.40;99.90;;;;;;4974133;28;20031;-77
2023/12/28 00:19:53;;;;;;;9.47;5.43;;;5.40;99.90;;;;;;4973762;28;20476;-77
2023/12/28 00:22:18;;;;;;;9.57;5.43;;;5.40;99.90;;;;;;4975369;28;20027;-77
2023/12/28 00:24:44;;;;;;;9.87;5.57;;;5.50;99.90;;;;;;4974829;28;20035;-77
2023/12/28 00:27:09;;;;;;;7.73;4.63;;;5.40;99.90;;;;;;4957925;28;20081;-76
2023/12/28 00:29:38;;;;;;;9.70;5.43;;;5.40;99.90;;;;;;4974835;28;20027;-76
2023/12/28 00:32:05;;;;;;;10.60;5.50;;;5.40;99.90;;;;;;4957387;28;20484;-76
2023/12/28 00:34:31;;;;;;;13.07;5.70;;;5.40;99.90;;;;;;4973802;28;20027;-76
2023/12/28 00:36:56;;;;;;;10.00;5.53;;;5.40;99.90;;;;;;4974136;28;20061;-77
2023/12/28 00:39:22;;;;;;;11.50;5.70;;;5.40;99.90;;;;;;4957653;28;20510;-77
2023/12/28 00:41:47;;;;;;;11.43;5.50;;;5.30;99.90;;;;;;4974671;28;20027;-77
2023/12/28 00:44:13;;;;;;;10.50;5.87;;;5.30;99.90;;;;;;4957505;28;20027;-76
2023/12/28 00:46:38;;;;;;;12.63;5.60;;;5.30;99.90;;;;;;4974781;28;20373;-77
2023/12/28 00:49:04;;;;;;;35.67;18.10;;;5.20;99.90;;;;;;4973642;28;20189;-77
2023/12/28 00:51:30;;;;;;;12.33;6.83;;;5.20;99.90;;;;;;4974487;28;20023;-76
2023/12/28 00:53:55;;;;;;;10.90;6.07;;;5.20;99.90;;;;;;4974340;28;20027;-77
2023/12/28 00:56:21;;;;;;;9.20;5.20;;;5.30;99.90;;;;;;4974743;28;20042;-77
2023/12/28 00:58:47;;;;;;;9.73;5.37;;;5.30;99.90;;;;;;4956989;28;20041;-77
2023/12/28 01:01:12;;;;;;;18.83;8.27;;;5.30;99.90;;;;;;4957383;28;20035;-77
2023/12/28 01:03:38;;;;;;;9.33;5.00;;;5.30;99.90;;;;;;4957054;28;20052;-77
2023/12/28 01:06:05;;;;;;;11.80;5.57;;;5.20;99.90;;;;;;4956795;28;20038;-76
2023/12/28 01:08:31;;;;;;;7.60;5.03;;;5.20;99.90;;;;;;4957474;28;20483;-77
2023/12/28 01:10:56;;;;;;;10.03;5.10;;;5.20;99.90;;;;;;4956409;28;20026;-77
2023/12/28 01:13:22;;;;;;;9.27;5.10;;;5.10;99.90;;;;;;4957121;28;20027;-76
2023/12/28 01:15:47;;;;;;;8.33;4.90;;;5.10;99.90;;;;;;4956508;28;20516;-77
2023/12/28 01:18:13;;;;;;;10.87;5.40;;;5.10;99.90;;;;;;4974525;28;20027;-76
2023/12/28 01:20:38;;;;;;;9.17;4.83;;;5.00;99.90;;;;;;4957126;28;20468;-76
2023/12/28 01:23:04;;;;;;;9.93;4.67;;;4.90;99.90;;;;;;4973972;28;20026;-77
2023/12/28 01:25:30;;;;;;;10.23;5.17;;;5.00;99.90;;;;;;4957098;28;20465;-76
2023/12/28 01:27:55;;;;;;;10.00;5.43;;;5.10;99.90;;;;;;4956531;28;20117;-76
2023/12/28 01:30:21;;;;;;;11.03;5.43;;;5.10;99.90;;;;;;4956853;28;20039;-76
2023/12/28 01:32:46;;;;;;;10.80;5.20;;;5.10;99.90;;;;;;4956616;28;20027;-76
2023/12/28 01:35:12;;;;;;;8.97;5.03;;;5.10;99.90;;;;;;4956445;28;20068;-76
2023/12/28 01:37:38;;;;;;;10.60;4.90;;;5.10;99.90;;;;;;4972196;28;20062;-76
2023/12/28 01:40:04;;;;;;;8.50;4.93;;;5.10;99.90;;;;;;4956017;28;20057;-76
2023/12/28 01:42:31;;;;;;;9.97;5.27;;;5.10;99.90;;;;;;4972659;28;20031;-77
2023/12/28 01:44:57;;;;;;;9.27;5.23;;;5.20;99.90;;;;;;4956130;28;20027;-76
2023/12/28 01:47:24;;;;;;;10.13;4.83;;;5.20;99.90;;;;;;4972695;28;20033;-76
2023/12/28 01:49:50;;;;;;;13.20;5.10;;;5.20;99.90;;;;;;4971953;28;20031;-77
2023/12/28 01:52:16;;;;;;;10.10;4.87;;;5.20;99.90;;;;;;4972613;28;20042;-76
2023/12/28 01:54:41;;;;;;;9.53;5.33;;;5.30;99.90;;;;;;4973567;28;20177;-76
2023/12/28 01:57:08;;;;;;;7.00;4.37;;;5.30;99.90;;;;;;4972947;28;20437;-76
2023/12/28 01:59:34;;;;;;;8.80;5.10;;;5.40;99.90;;;;;;4973685;28;20046;-76
2023/12/28 02:02:00;;;;;;;10.70;4.83;;;5.50;99.90;;;;;;4959434;28;20046;-76
2023/12/28 02:04:28;;;;;;;9.57;4.80;;;5.50;99.90;;;;;;4977231;28;20161;-76
2023/12/28 02:07:00;;;;;;;9.03;4.27;;;5.60;99.90;;;;;;4959679;28;20035;-77
2023/12/28 02:09:26;;;;;;;7.67;3.93;;;5.70;99.90;;;;;;4977514;28;20041;-76
2023/12/28 02:11:53;;;;;;;8.30;4.67;;;5.80;99.90;;;;;;4977046;28;20054;-77
2023/12/28 02:14:20;;;;;;;8.53;4.23;;;5.80;99.90;;;;;;4977383;28;20081;-77
2023/12/28 02:17:10;;;;;;;5.40;3.83;;;5.80;99.90;;;;;;4959997;28;20045;-77
2023/12/28 02:19:49;;;;;;;7.47;3.77;;;5.80;99.90;;;;;;4959929;28;20039;-76
2023/12/28 02:22:16;;;;;;;6.83;4.17;;;5.80;99.90;;;;;;4960064;28;20121;-76
2023/12/28 02:25:14;;;;;;;6.33;3.37;;;5.90;99.90;;;;;;4959696;28;20022;-76
2023/12/28 02:27:42;;;;;;;6.93;3.57;;;6.00;99.90;;;;;;4977219;28;20054;-76
2023/12/28 02:30:09;;;;;;;6.23;3.43;;;6.10;99.90;;;;;;4959131;28;20209;-76
2023/12/28 02:32:56;;;;;;;7.23;3.60;;;6.20;99.90;;;;;;4959925;28;20396;-76
2023/12/28 02:35:41;;;;;;;5.73;3.27;;;6.20;99.90;;;;;;4976918;28;20037;-77
2023/12/28 02:38:13;;;;;;;4.83;3.23;;;6.30;99.90;;;;;;4974951;28;20047;-77
2023/12/28 02:40:43;;;;;;;4.22;2.70;;;6.40;99.90;;;;;;4975838;28;20129;-77
2023/12/28 02:43:11;;;;;;;5.10;2.83;;;6.50;99.90;;;;;;4959378;28;20066;-77
2023/12/28 02:45:38;;;;;;;6.57;3.03;;;6.60;99.90;;;;;;4977036;28;20472;-77
2023/12/28 02:48:04;;;;;;;5.53;2.70;;;6.70;99.90;;;;;;4975432;28;20027;-77
2023/12/28 02:50:30;;;;;;;6.50;2.60;;;6.80;99.90;;;;;;4976753;28;20055;-77
2023/12/28 02:52:57;;;;;;;6.65;2.88;;;6.90;99.90;;;;;;4975053;28;20033;-77
2023/12/28 02:55:23;;;;;;;4.28;2.50;;;6.90;99.90;;;;;;4976601;28;20047;-77
2023/12/28 02:57:59;;;;;;;4.40;2.50;;;7.10;99.90;;;;;;4976700;28;20053;-77
2023/12/28 03:00:24;;;;;;;4.47;2.30;;;7.10;99.90;;;;;;4959522;28;20130;-77
2023/12/28 03:02:50;;;;;;;3.87;2.27;;;7.20;99.90;;;;;;4959239;28;20242;-77
2023/12/28 03:05:16;;;;;;;5.35;2.53;;;7.20;99.90;;;;;;4958745;28;20023;-77
2023/12/28 03:07:42;;;;;;;4.30;2.33;;;7.20;99.90;;;;;;4975483;28;20113;-77
2023/12/28 03:10:08;;;;;;;3.65;2.00;;;7.30;99.90;;;;;;4958531;28;20038;-77
2023/12/28 03:12:34;;;;;;;2.28;1.83;;;7.30;99.90;;;;;;4975962;28;20473;-77
2023/12/28 03:15:00;;;;;;;4.95;2.00;;;7.40;99.90;;;;;;4975825;28;20029;-77
2023/12/28 03:17:26;;;;;;;4.95;1.90;;;7.50;99.90;;;;;;4976483;28;20113;-77
2023/12/28 03:19:51;;;;;;;2.80;1.60;;;7.60;99.90;;;;;;4974892;28;20461;-77
2023/12/28 03:22:17;;;;;;;4.22;1.60;;;7.70;99.90;;;;;;4976113;28;20143;-77
2023/12/28 03:24:43;;;;;;;2.45;1.45;;;7.70;99.90;;;;;;4975836;28;20085;-77
2023/12/28 03:27:08;;;;;;;2.05;1.67;;;7.80;99.90;;;;;;4958298;28;20033;-77
2023/12/28 03:29:34;;;;;;;3.67;1.58;;;7.80;99.90;;;;;;4958707;28;20027;-76
2023/12/28 03:32:00;;;;;;;3.50;1.73;;;8.00;99.90;;;;;;4975743;28;20082;-77
2023/12/28 03:34:26;;;;;;;3.60;1.77;;;8.10;99.90;;;;;;4976315;28;20033;-77
2023/12/28 03:36:52;;;;;;;4.88;1.73;;;8.30;99.90;;;;;;4974306;28;20460;-77
2023/12/28 03:39:18;;;;;;;2.90;1.98;;;8.30;99.90;;;;;;4975290;28;20027;-77
2023/12/28 03:41:44;;;;;;;3.53;1.92;;;8.20;99.90;;;;;;4975855;28;20082;-77
2023/12/28 03:44:10;;;;;;;4.93;2.00;;;8.30;99.90;;;;;;4974204;28;20031;-77
2023/12/28 03:46:35;;;;;;;2.28;1.58;;;8.30;99.90;;;;;;4958838;28;20062;-77
2023/12/28 03:49:01;;;;;;;3.33;2.05;;;8.30;99.90;;;;;;4957948;28;20034;-77
2023/12/28 03:51:26;;;;;;;6.10;1.95;;;8.30;99.90;;;;;;4958649;28;20110;-77
2023/12/28 03:53:52;;;;;;;3.53;1.65;;;8.30;99.90;;;;;;4958383;28;20490;-77
2023/12/28 03:56:24;;;;;;;2.78;1.50;;;8.40;99.90;;;;;;4975183;28;20062;-77
2023/12/28 03:58:51;;;;;;;3.03;1.75;;;8.40;99.90;;;;;;4975216;28;20547;-77
2023/12/28 04:01:21;;;;;;;5.22;1.55;;;8.50;99.90;;;;;;4975053;28;20113;-77
2023/12/28 04:03:47;;;;;;;3.65;1.90;;;8.40;99.90;;;;;;4958178;28;20048;-77
2023/12/28 04:06:13;;;;;;;3.38;1.80;;;8.40;99.90;;;;;;4957612;28;20035;-77
2023/12/28 04:08:40;;;;;;;3.25;1.60;;;8.40;99.90;;;;;;4974195;28;20035;-77
2023/12/28 04:11:05;;;;;;;2.50;1.50;;;8.40;99.90;;;;;;4957583;28;20043;-77
2023/12/28 04:13:31;;;;;;;2.95;1.50;;;8.40;99.90;;;;;;4975304;28;20034;-77
2023/12/28 04:15:56;;;;;;;3.42;1.40;;;8.40;99.90;;;;;;4957675;28;20037;-90
2023/12/28 04:18:22;;;;;;;2.65;1.75;;;8.30;99.90;;;;;;4973996;28;20046;-77
2023/12/28 04:20:48;;;;;;;3.88;1.45;;;8.30;99.90;;;;;;4957537;28;20109;-77
2023/12/28 04:23:14;;;;;;;4.05;1.92;;;8.30;99.90;;;;;;4974033;28;20034;-77
2023/12/28 04:25:39;;;;;;;2.42;1.40;;;8.20;99.90;;;;;;4958059;28;20532;-77
2023/12/28 04:28:06;;;;;;;3.70;1.85;;;8.20;99.90;;;;;;4974557;28;20114;-77
2023/12/28 04:30:32;;;;;;;4.18;1.40;;;8.20;99.90;;;;;;4957537;28;20038;-77
2023/12/28 04:32:58;;;;;;;3.47;1.58;;;8.20;99.90;;;;;;4974860;28;20023;-94
2023/12/28 04:35:23;;;;;;;3.97;1.70;;;8.20;99.90;;;;;;4957559;28;20030;-77
2023/12/28 04:37:49;;;;;;;2.63;1.50;;;8.30;99.90;;;;;;4953844;29;20077;-74
2023/12/28 04:40:14;;;;;;;2.78;1.65;;;8.30;99.90;;;;;;4954980;28;20027;-77
2023/12/28 04:42:40;;;;;;;4.18;1.83;;;8.30;99.90;;;;;;4954326;29;20077;-77
2023/12/28 04:45:07;;;;;;;2.03;1.33;;;8.30;99.90;;;;;;4953878;28;20035;-76
2023/12/28 04:47:33;;;;;;;3.38;1.52;;;8.40;99.90;;;;;;4955037;28;20082;-74
2023/12/28 04:49:58;;;;;;;3.97;1.50;;;8.40;99.90;;;;;;4954117;28;20031;-74
2023/12/28 04:52:24;;;;;;;3.05;1.60;;;8.50;99.90;;;;;;4954110;29;20045;-73
2023/12/28 04:54:50;;;;;;;1.88;1.20;;;8.50;99.90;;;;;;4954006;28;20115;-73
2023/12/28 04:57:16;;;;;;;2.33;1.30;;;8.50;99.90;;;;;;4953170;28;20023;-76
2023/12/28 04:59:41;;;;;;;2.45;1.30;;;8.50;99.90;;;;;;4955394;28;20028;-77
2023/12/28 05:02:07;;;;;;;2.85;1.40;;;8.50;99.90;;;;;;4953628;28;20067;-77
2023/12/28 05:04:37;;;;;;;3.88;1.38;;;8.40;99.90;;;;;;4953920;28;20465;-77
2023/12/28 05:07:03;;;;;;;3.65;1.50;;;8.50;99.90;;;;;;4954698;28;20131;-77
2023/12/28 05:09:28;;;;;;;4.10;1.30;;;8.40;99.90;;;;;;4953725;28;20114;-77
2023/12/28 05:11:54;;;;;;;2.72;1.38;;;8.50;99.90;;;;;;4953694;28;20082;-76
2023/12/28 05:14:20;;;;;;;4.10;1.58;;;8.50;99.90;;;;;;4953270;28;20264;-77
2023/12/28 05:16:45;;;;;;;2.47;1.23;;;8.50;99.90;;;;;;4954836;28;20437;-77
2023/12/28 05:19:11;;;;;;;4.75;1.30;;;8.50;99.90;;;;;;4953316;29;20047;-76
2023/12/28 05:21:36;;;;;;;1.85;1.10;;;8.60;99.90;;;;;;4954914;28;20031;-77
2023/12/28 05:24:02;;;;;;;1.95;1.20;;;8.60;99.90;;;;;;4953202;28;20027;-78
2023/12/28 05:26:27;;;;;;;3.80;1.25;;;8.60;99.90;;;;;;4954921;28;20031;-76
2023/12/28 05:28:53;;;;;;;2.22;1.17;;;8.70;99.90;;;;;;4953637;29;20532;-77
2023/12/28 05:31:18;;;;;;;1.70;1.00;;;8.70;99.90;;;;;;4954531;28;20032;-77
2023/12/28 05:33:44;;;;;;;1.63;1.23;;;8.70;99.90;;;;;;4954592;28;20041;-77
2023/12/28 05:36:10;;;;;;;3.53;1.65;;;8.70;99.90;;;;;;4953743;28;20078;-77
2023/12/28 05:38:35;;;;;;;2.40;1.23;;;8.80;99.90;;;;;;4956707;28;20110;-77
2023/12/28 05:41:01;;;;;;;2.80;1.20;;;8.80;99.90;;;;;;4956603;28;20086;-77
2023/12/28 05:43:26;;;;;;;2.78;1.10;;;8.90;99.90;;;;;;4956164;28;20448;-77
2023/12/28 05:45:52;;;;;;;2.33;1.20;;;8.90;99.90;;;;;;4956589;28;20035;-77
2023/12/28 05:48:17;;;;;;;2.17;1.20;;;9.00;99.90;;;;;;4956303;28;20025;-77
2023/12/28 05:50:43;;;;;;;2.65;1.30;;;9.00;99.90;;;;;;4956435;28;20542;-77
2023/12/28 05:53:13;;;;;;;2.33;1.20;;;9.10;99.90;;;;;;4973411;28;20376;-77
2023/12/28 05:55:40;;;;;;;2.28;1.13;;;9.10;99.90;;;;;;4973695;28;20121;-77
2023/12/28 05:58:05;;;;;;;1.63;1.13;;;9.10;99.90;;;;;;4955902;28;20093;-77
2023/12/28 06:00:31;;;;;;;3.10;1.20;;;9.20;99.90;;;;;;4973873;28;20039;-77
2023/12/28 06:02:57;;;;;;;3.00;1.20;;;9.10;99.90;;;;;;4956460;28;20114;-77
2023/12/28 06:05:22;;;;;;;2.75;1.38;;;9.20;99.90;;;;;;4955983;28;20851;-77
2023/12/28 06:07:48;;;;;;;2.78;1.35;;;9.20;99.90;;;;;;4973825;28;20082;-74
2023/12/28 06:10:13;;;;;;;2.78;1.20;;;9.20;99.90;;;;;;4955867;28;20196;-74
2023/12/28 06:12:39;;;;;;;2.47;1.30;;;9.20;99.90;;;;;;4972203;28;20027;-74
2023/12/28 06:15:05;;;;;;;1.58;1.00;;;9.20;99.90;;;;;;4955710;28;20031;-77
2023/12/28 06:17:31;;;;;;;2.72;1.58;;;9.20;99.90;;;;;;4973443;28;20031;-74
2023/12/28 06:19:56;;;;;;;2.47;1.55;;;9.20;99.90;;;;;;4973735;28;20456;-74
2023/12/28 06:22:22;;;;;;;1.48;1.02;;;9.20;99.90;;;;;;4955739;28;20060;-74
2023/12/28 06:24:47;;;;;;;2.60;1.30;;;9.20;99.90;;;;;;4973385;28;20031;-74
2023/12/28 06:27:13;;;;;;;2.35;1.23;;;9.20;99.90;;;;;;4972859;28;20027;-74
2023/12/28 06:29:39;;;;;;;1.95;1.00;;;9.20;99.90;;;;;;4973471;28;20090;-74
2023/12/28 06:32:05;;;;;;;3.42;1.30;;;9.20;99.90;;;;;;4955914;28;20476;-73
2023/12/28 06:34:31;;;;;;;3.75;1.35;;;9.20;99.90;;;;;;4973336;28;20491;-74
2023/12/28 06:36:56;;;;;;;1.55;0.98;;;9.10;99.90;;;;;;4972903;28;20047;-74
2023/12/28 06:39:22;;;;;;;4.18;1.30;;;9.10;99.90;;;;;;4955540;28;20097;-77
2023/12/28 06:41:48;;;;;;;5.93;1.60;;;9.10;99.90;;;;;;4956195;28;20026;-77
2023/12/28 06:44:14;;;;;;;1.33;1.05;;;9.20;99.90;;;;;;4955546;28;20031;-77
2023/12/28 06:46:40;;;;;;;3.67;1.10;;;9.10;99.90;;;;;;4958132;28;20059;-77
2023/12/28 06:49:06;;;;;;;4.75;1.15;;;9.10;99.90;;;;;;4959075;28;20031;-91
2023/12/28 06:51:33;;;;;;;2.00;1.08;;;9.10;99.90;;;;;;4977133;28;20145;-77
2023/12/28 06:53:58;;;;;;;2.35;1.10;;;9.10;99.90;;;;;;4959468;28;20038;-77
2023/12/28 06:56:24;;;;;;;3.30;1.20;;;9.10;99.90;;;;;;4976297;28;20039;-77
2023/12/28 06:58:50;;;;;;;1.30;1.20;;;9.10;99.90;;;;;;4959429;28;20090;-77
2023/12/28 07:01:16;;;;;;;2.42;1.25;;;9.10;99.90;;;;;;4959006;28;20061;-76
2023/12/28 07:03:41;;;;;;;3.35;1.30;;;9.10;99.90;;;;;;4959226;28;20027;-77
2023/12/28 07:06:08;;;;;;;4.35;1.65;;;9.10;99.90;;;;;;4976066;28;20027;-89
2023/12/28 07:08:34;;;;;;;2.58;1.35;;;9.00;99.90;;;;;;4959090;28;20162;-76
2023/12/28 07:10:59;;;;;;;4.50;1.20;;;9.00;99.90;;;;;;4958962;28;20129;-76
2023/12/28 07:13:25;;;;;;;3.30;1.20;;;9.00;99.90;;;;;;4975593;28;20145;-76
2023/12/28 07:15:51;;;;;;;2.38;1.30;;;9.00;99.90;;;;;;4958761;28;20037;-74
2023/12/28 07:18:17;;;;;;;3.10;1.38;;;8.90;99.90;;;;;;4974571;28;20031;-74
2023/12/28 07:20:42;;;;;;;2.70;1.05;;;8.90;99.90;;;;;;4958845;28;20056;-74
2023/12/28 07:23:08;;;;;;;2.80;1.15;;;8.90;99.90;;;;;;4974717;28;20034;-87
2023/12/28 07:25:34;;;;;;;4.78;2.15;;;8.90;99.90;;;;;;4958728;28;20066;-74
2023/12/28 07:28:00;;;;;;;5.43;1.75;;;8.90;99.90;;;;;;4976051;28;20066;-73
2023/12/28 07:30:26;;;;;;;5.60;2.08;;;8.80;99.90;;;;;;4958188;28;20035;-74
2023/12/28 07:32:51;;;;;;;4.18;1.27;;;8.80;99.90;;;;;;4958550;28;20460;-74
2023/12/28 07:35:18;;;;;;;2.78;1.27;;;8.80;99.90;;;;;;4974107;28;20592;-74
2023/12/28 07:37:44;;;;;;;3.40;1.10;;;8.80;99.90;;;;;;4975500;28;20055;-74
2023/12/28 07:40:12;;;;;;;2.17;1.23;;;8.80;99.90;;;;;;4975406;28;20033;-78
2023/12/28 07:42:38;;;;;;;2.72;1.70;;;8.80;99.90;;;;;;4975764;28;20102;-74
2023/12/28 07:45:04;;;;;;;1.73;1.27;;;8.80;99.90;;;;;;4958347;28;20030;-74
2023/12/28 07:47:30;;;;;;;2.55;1.27;;;8.80;99.90;;;;;;4957813;28;20085;-74
2023/12/28 07:49:56;;;;;;;4.43;1.33;;;8.80;99.90;;;;;;4958347;28;20027;-74
2023/12/28 07:52:21;;;;;;;4.88;1.42;;;8.80;99.90;;;;;;4957800;28;20030;-78
2023/12/28 07:54:47;;;;;;;5.80;2.00;;;8.80;99.90;;;;;;4958249;28;20027;-76
2023/12/28 07:57:13;;;;;;;4.55;1.80;;;8.80;99.90;;;;;;4973867;28;20042;-77
2023/12/28 07:59:38;;;;;;;3.67;1.60;;;8.70;99.90;;;;;;4974957;28;20097;-76
2023/12/28 08:02:04;;;;;;;3.35;1.60;;;8.70;99.90;;;;;;4974281;28;20038;-76
2023/12/28 08:04:31;;;;;;;5.88;1.85;;;8.70;99.90;;;;;;4957562;28;20515;-76
2023/12/28 08:06:56;;;;;;;2.83;1.58;;;8.70;99.90;;;;;;4957969;28;20031;-76
2023/12/28 08:09:22;;;;;;;3.25;1.50;;;8.70;99.90;;;;;;4957521;28;20054;-77
2023/12/28 08:11:48;;;;;;;4.63;1.85;;;8.70;99.90;;;;;;4975207;28;20384;-76
2023/12/28 08:14:13;;;;;;;2.60;1.60;;;8.60;99.90;;;;;;4974744;28;20035;-77
2023/12/28 08:16:39;;;;;;;1.95;1.55;;;8.70;99.90;;;;;;4957655;28;20062;-77
2023/12/28 08:19:05;;;;;;;2.85;1.70;;;8.70;99.90;;;;;;4957784;28;20031;-77
2023/12/28 08:21:30;;;;;;;2.30;1.60;;;8.70;99.90;;;;;;4973422;28;20030;-76
2023/12/28 08:23:56;;;;;;;2.45;1.50;;;8.70;99.90;;;;;;4974951;28;20031;-77
2023/12/28 08:26:22;;;;;;;3.30;1.73;;;8.70;99.90;;;;;;4974408;28;20113;-77
2023/12/28 08:28:47;;;;;;;2.35;1.48;;;8.70;99.90;;;;;;4975028;28;20138;-77
2023/12/28 08:31:13;;;;;;;3.15;1.90;;;8.70;99.90;;;;;;4957221;28;20078;-77
2023/12/28 08:33:39;;;;;;;5.07;2.28;;;8.60;99.90;;;;;;4974792;28;20085;-77
2023/12/28 08:36:06;;;;;;;3.17;1.85;;;8.60;99.90;;;;;;4973329;28;20400;-76
2023/12/28 08:38:32;;;;;;;4.97;2.22;;;8.60;99.90;;;;;;4956991;28;20316;-77
2023/12/28 08:40:57;;;;;;;2.70;1.67;;;8.60;99.90;;;;;;4957589;28;20081;-76
2023/12/28 08:43:23;;;;;;;5.50;2.00;;;8.60;99.90;;;;;;4956987;28;20487;-77
2023/12/28 08:45:49;;;;;;;2.50;1.45;;;8.60;99.90;;;;;;4957475;28;20137;-77
2023/12/28 08:48:15;;;;;;;1.77;1.35;;;8.60;99.90;;;;;;4974219;28;20113;-76
2023/12/28 08:50:41;;;;;;;1.85;1.38;;;8.60;99.90;;;;;;4974486;28;20358;-76
2023/12/28 08:53:06;;;;;;;2.35;1.67;;;8.60;99.90;;;;;;4973331;28;20035;-76
2023/12/28 08:55:33;;;;;;;3.38;1.90;;;8.60;99.90;;;;;;4973880;28;20465;-76
2023/12/28 08:57:59;;;;;;;4.10;1.65;;;8.60;99.90;;;;;;4974718;28;20030;-76
2023/12/28 09:00:25;;;;;;;7.55;1.75;;;8.60;99.90;;;;;;4956285;28;20041;-77
2023/12/28 09:02:51;;;;;;;5.72;2.47;;;8.60;99.90;;;;;;4974430;28;20031;-76
2023/12/28 09:05:17;;;;;;;3.63;1.63;;;8.60;99.90;;;;;;4956501;28;20027;-77
2023/12/28 09:07:43;;;;;;;3.10;1.98;;;8.60;99.90;;;;;;4974282;28;20027;-77
2023/12/28 09:10:12;;;;;;;3.30;1.90;;;8.60;99.90;;;;;;4956753;28;20080;-76
2023/12/28 09:12:40;;;;;;;4.03;2.00;;;8.60;99.90;;;;;;4972670;28;20062;-76
2023/12/28 09:15:06;;;;;;;5.28;1.95;;;8.60;99.90;;;;;;4956850;28;20392;-76
2023/12/28 09:17:31;;;;;;;2.45;1.88;;;8.60;99.90;;;;;;4972637;28;20407;-77
2023/12/28 09:19:58;;;;;;;4.55;1.98;;;8.60;99.90;;;;;;4972884;28;20027;-76
2023/12/28 09:22:23;;;;;;;3.20;1.80;;;8.60;99.90;;;;;;4956497;28;20027;-77
2023/12/28 09:24:49;;;;;;;2.47;1.50;;;8.60;99.90;;;;;;4956821;28;20058;-77
2023/12/28 09:27:15;;;;;;;3.10;1.90;;;8.60;99.90;;;;;;4973762;28;20468;-76
2023/12/28 09:29:41;;;;;;;5.28;1.70;;;8.70;99.90;;;;;;4974222;28;20030;-76
2023/12/28 09:32:06;;;;;;;4.05;1.60;;;8.70;99.90;;;;;;4973974;28;20031;-75
2023/12/28 09:34:32;;;;;;;5.20;2.33;;;8.70;99.90;;;;;;4972458;28;20093;-77
2023/12/28 09:36:58;;;;;;;6.15;2.50;;;8.60;99.90;;;;;;4972561;28;20516;-77
2023/12/28 09:39:24;;;;;;;5.88;1.80;;;8.70;99.90;;;;;;4972392;28;20468;-77
2023/12/28 09:41:59;;;;;;;4.90;2.10;;;8.70;99.90;;;;;;4956715;28;20035;-77
2023/12/28 09:44:25;;;;;;;4.55;1.90;;;8.70;99.90;;;;;;4956281;28;20031;-77
2023/12/28 09:46:53;;;;;;;4.68;1.70;;;8.70;99.90;;;;;;4974281;28;20491;-77
2023/12/28 09:49:21;;;;;;;4.07;1.95;;;8.70;99.90;;;;;;4955902;28;20568;-77
2023/12/28 09:51:47;;;;;;;2.92;1.77;;;8.80;99.90;;;;;;4973827;28;20065;-77
2023/12/28 09:54:13;;;;;;;2.30;1.58;;;8.80;99.90;;;;;;4973557;28;20055;-76
2023/12/28 09:56:40;;;;;;;3.03;1.88;;;8.80;99.90;;;;;;4973452;28;20538;-77
2023/12/28 09:59:06;;;;;;;3.55;2.00;;;8.80;99.90;;;;;;4956262;28;20127;-77
2023/12/28 10:01:34;;;;;;;2.63;1.80;;;8.80;99.90;;;;;;4955959;28;20039;-77
2023/12/28 10:04:02;;;;;;;3.63;1.70;;;8.80;99.90;;;;;;4956346;28;20027;-77
2023/12/28 10:06:28;;;;;;;5.72;2.10;;;8.90;99.90;;;;;;4973343;28;20031;-77
2023/12/28 10:08:55;;;;;;;4.00;2.10;;;8.90;99.90;;;;;;4956443;28;20023;-76
2023/12/28 10:11:21;;;;;;;4.78;2.20;;;8.90;99.90;;;;;;4955635;28;20027;-78
2023/12/28 10:13:49;;;;;;;3.63;1.65;;;8.90;99.90;;;;;;4956515;28;20112;-77
2023/12/28 10:16:15;;;;;;;4.57;1.58;;;8.90;99.90;;;;;;4973601;28;20031;-77
2023/12/28 10:18:44;;;;;;;4.57;2.00;;;8.90;99.90;;;;;;4955929;28;20058;-77
2023/12/28 10:21:11;;;;;;;4.47;1.83;;;8.80;99.90;;;;;;4957513;28;20026;-76
2023/12/28 10:23:37;;;;;;;6.18;1.80;;;8.90;99.90;;;;;;4959572;28;20415;-76
2023/12/28 10:26:04;;;;;;;2.53;1.60;;;8.90;99.90;;;;;;4977379;28;20033;-77
2023/12/28 10:28:36;;;;;;;3.55;1.63;;;8.90;99.90;;;;;;4959254;28;20030;-76
2023/12/28 10:31:01;;;;;;;3.42;2.05;;;8.90;99.90;;;;;;4959821;28;20043;-76
2023/12/28 10:33:27;;;;;;;3.17;1.90;;;8.90;99.90;;;;;;4959286;28;20033;-77
2023/12/28 10:35:57;;;;;;;2.80;1.92;;;8.90;99.90;;;;;;4959738;28;20372;-77
2023/12/28 10:38:28;;;;;;;3.25;2.15;;;8.90;99.90;;;;;;4976737;28;20046;-77
2023/12/28 10:40:53;;;;;;;6.45;2.08;;;8.90;99.90;;;;;;4960041;28;20027;-77
2023/12/28 10:43:23;;;;;;;4.13;2.10;;;8.90;99.90;;;;;;4976814;28;20030;-76
2023/12/28 10:45:51;;;;;;;2.97;1.70;;;8.90;99.90;;;;;;4959436;28;20033;-76
2023/12/28 10:48:22;;;;;;;4.55;1.98;;;8.90;99.90;;;;;;4959274;28;20069;-77
2023/12/28 10:50:52;;;;;;;4.10;1.70;;;8.90;99.90;;;;;;4959401;28;20031;-77
2023/12/28 10:53:39;;;;;;;5.38;2.10;;;8.90;99.90;;;;;;4976787;28;20040;-77
2023/12/28 10:56:32;;;;;;;5.18;2.33;;;8.90;99.90;;;;;;4959303;28;20034;-76
2023/12/28 10:59:16;;;;;;;3.17;2.13;;;8.90;99.90;;;;;;4976899;28;20508;-76
2023/12/28 11:01:43;;;;;;;4.88;1.95;;;8.90;99.90;;;;;;4958764;28;20030;-77
2023/12/28 11:04:15;;;;;;;5.53;2.10;;;8.90;99.90;;;;;;4959293;28;20023;-76
2023/12/28 11:06:43;;;;;;;3.08;1.90;;;9.00;99.90;;;;;;4958837;28;20031;-77
2023/12/28 11:09:10;;;;;;;2.38;1.92;;;9.00;99.90;;;;;;4974978;28;20023;-76
2023/12/28 11:11:36;;;;;;;3.03;1.70;;;9.00;99.90;;;;;;4958338;28;20377;-76
2023/12/28 11:14:03;;;;;;;4.57;2.28;;;9.00;99.90;;;;;;4976372;28;20049;-77
2023/12/28 11:16:29;;;;;;;2.55;2.00;;;9.00;99.90;;;;;;4958037;28;20031;-76
2023/12/28 11:18:56;;;;;;;4.78;1.95;;;9.00;99.90;;;;;;4976386;28;20113;-76
2023/12/28 11:21:22;;;;;;;3.38;1.65;;;9.00;99.90;;;;;;4976091;28;20023;-90
2023/12/28 11:23:49;;;;;;;2.22;1.65;;;9.00;99.90;;;;;;4976286;28;20494;-76
2023/12/28 11:26:20;;;;;;;3.70;1.70;;;9.00;99.90;;;;;;4958776;28;20468;-76
2023/12/28 11:28:46;;;;;;;2.17;1.57;;;9.00;99.90;;;;;;4975871;28;20035;-76
2023/12/28 11:31:14;;;;;;;3.72;1.55;;;9.10;99.90;;;;;;4975988;28;20471;-76
2023/12/28 11:33:58;;;;;;;2.83;1.85;;;9.10;99.90;;;;;;4958299;28;20376;-76
2023/12/28 11:36:41;;;;;;;3.47;1.60;;;9.10;99.90;;;;;;4958283;28;20384;-84
2023/12/28 11:39:07;;;;;;;3.25;1.55;;;9.10;99.90;;;;;;4958875;28;20062;-76
2023/12/28 11:41:35;;;;;;;2.25;1.60;;;9.10;99.90;;;;;;4975542;28;20038;-76
2023/12/28 11:44:04;;;;;;;4.43;1.70;;;9.10;99.90;;;;;;4958810;28;20468;-76
2023/12/28 11:46:31;;;;;;;2.10;1.60;;;9.10;99.90;;;;;;4974224;28;20037;-76
2023/12/28 11:49:07;;;;;;;4.22;1.55;;;9.10;99.90;;;;;;4958796;28;20034;-76
2023/12/28 11:51:35;;;;;;;3.03;1.77;;;9.20;99.90;;;;;;4958109;28;20042;-76
2023/12/28 11:54:03;;;;;;;2.63;1.48;;;9.20;99.90;;;;;;4958596;28;20170;-76
2023/12/28 11:56:29;;;;;;;3.00;1.55;;;9.20;99.90;;;;;;4975188;28;20070;-76
2023/12/28 11:58:54;;;;;;;3.05;1.40;;;9.20;99.90;;;;;;4975389;28;20062;-76
2023/12/28 12:01:20;;;;;;;3.05;1.60;;;9.20;99.90;;;;;;4958337;28;20388;-76
2023/12/28 12:03:46;;;;;;;2.90;1.30;;;9.20;99.90;;;;;;4975221;28;20104;-76
2023/12/28 12:06:11;;;;;;;3.00;1.70;;;9.20;99.90;;;;;;4958370;28;20066;-76
2023/12/28 12:08:37;;;;;;;5.65;2.00;;;9.20;99.90;;;;;;4957842;28;20027;-76
2023/12/28 12:11:05;;;;;;;2.65;1.80;;;9.20;99.90;;;;;;4958178;28;20022;-76
2023/12/28 12:13:31;;;;;;;2.22;1.60;;;9.20;99.90;;;;;;4974949;28;20519;-76
2023/12/28 12:15:57;;;;;;;3.25;1.80;;;9.20;99.90;;;;;;4975286;28;20118;-76
2023/12/28 12:18:23;;;;;;;3.33;1.75;;;9.20;99.90;;;;;;4957977;28;20027;-76
2023/12/28 12:20:50;;;;;;;3.53;1.77;;;9.20;99.90;;;;;;4974466;28;20031;-76
2023/12/28 12:23:15;;;;;;;3.65;2.00;;;9.20;99.90;;;;;;4975267;28;20528;-76
2023/12/28 12:25:41;;;;;;;6.07;2.17;;;9.20;99.90;;;;;;4957509;28;20061;-76
2023/12/28 12:28:07;;;;;;;3.65;1.80;;;9.20;99.90;;;;;;4975163;28;20027;-76
2023/12/28 12:30:33;;;;;;;5.13;2.10;;;9.20;99.90;;;;;;4974383;28;20546;-76
2023/12/28 12:32:59;;;;;;;4.25;2.08;;;9.20;99.90;;;;;;4973742;28;20455;-76
2023/12/28 12:35:24;;;;;;;3.25;1.73;;;9.20;99.90;;;;;;4957633;28;20412;-76
2023/12/28 12:37:51;;;;;;;2.72;2.20;;;9.20;99.90;;;;;;4956840;28;20047;-76
2023/12/28 12:40:19;;;;;;;4.90;2.67;;;9.20;99.90;;;;;;4973693;28;20023;-76
2023/12/28 12:42:55;;;;;;;4.07;2.05;;;9.20;99.90;;;;;;4974410;28;20027;-76
2023/12/28 12:45:24;;;;;;;5.57;1.70;;;9.20;99.90;;;;;;4974482;28;20030;-76
2023/12/28 12:47:51;;;;;;;5.38;2.15;;;9.20;99.90;;;;;;4974010;28;20070;-76
2023/12/28 12:50:17;;;;;;;3.45;2.13;;;9.20;99.90;;;;;;4974782;28;20023;-76
2023/12/28 12:52:45;;;;;;;2.35;1.60;;;9.20;99.90;;;;;;4956960;28;20380;-75